createdAt,value
2018-06-24T00:04:53.264Z,77.90
2018-06-24T00:09:47.784Z,77.70
2018-06-24T00:14:42.341Z,78.00
2018-06-24T00:19:36.827Z,78.30
2018-06-24T00:24:31.353Z,78.50
2018-06-24T00:29:25.823Z,79.80
2018-06-24T00:34:20.388Z,79.50
2018-06-24T00:44:09.186Z,80.40
2018-06-24T00:49:03.773Z,80.70
2018-06-24T00:53:58.295Z,81.10
2018-06-24T00:58:52.833Z,81.30
2018-06-24T01:03:47.377Z,81.90
2018-06-24T01:08:41.858Z,82.70
2018-06-24T01:13:36.392Z,82.70
2018-06-24T01:18:30.933Z,83.10
2018-06-24T01:23:25.541Z,83.50
2018-06-24T01:28:20.053Z,83.50
2018-06-24T01:33:14.657Z,84.70
2018-06-24T01:38:09.206Z,84.50
2018-06-24T01:43:03.736Z,84.70
2018-06-24T01:47:58.202Z,85.00
2018-06-24T01:52:52.708Z,85.60
2018-06-24T01:57:47.209Z,85.40
2018-06-24T02:02:41.717Z,85.80
2018-06-24T02:07:36.267Z,86.10
2018-06-24T02:12:30.783Z,86.00
2018-06-24T02:17:25.271Z,86.90
2018-06-24T02:22:19.804Z,87.30
2018-06-24T02:27:14.323Z,87.30
2018-06-24T02:32:08.885Z,88.20
2018-06-24T02:37:03.365Z,88.30
2018-06-24T02:41:57.863Z,88.20
2018-06-24T02:46:52.396Z,89.00
2018-06-24T02:51:46.887Z,89.10
2018-06-24T02:56:41.484Z,89.50
2018-06-24T03:01:36.288Z,89.80
2018-06-24T03:06:30.757Z,89.80
2018-06-24T03:11:25.289Z,90.10
2018-06-24T03:16:19.802Z,90.00
2018-06-24T03:21:14.312Z,90.10
2018-06-24T03:31:03.025Z,90.20
2018-06-24T03:35:57.633Z,90.50
2018-06-24T03:40:52.132Z,90.40
2018-06-24T03:45:46.628Z,90.50
2018-06-24T03:50:41.158Z,90.50
2018-06-24T03:55:35.759Z,90.40
2018-06-24T04:00:30.325Z,90.00
2018-06-24T04:05:24.880Z,89.40
2018-06-24T04:10:19.568Z,88.70
2018-06-24T04:15:14.258Z,88.10
2018-06-24T04:20:08.881Z,86.90
2018-06-24T04:25:03.415Z,85.60
2018-06-24T04:29:57.961Z,85.50
2018-06-24T04:34:52.488Z,84.60
2018-06-24T04:39:46.975Z,83.50
2018-06-24T04:44:41.615Z,82.30
2018-06-24T04:49:36.208Z,81.20
2018-06-24T04:54:30.677Z,78.80
2018-06-24T04:59:25.164Z,75.40
2018-06-24T05:04:19.652Z,73.60
2018-06-24T05:10:44.042Z,72.50
2018-06-24T05:15:38.729Z,71.70
2018-06-24T05:20:33.236Z,73.10
2018-06-24T05:25:27.746Z,72.80
2018-06-24T05:30:22.258Z,72.80
2018-06-24T05:35:16.735Z,71.60
2018-06-24T05:40:11.301Z,71.00
2018-06-24T05:45:05.944Z,67.90
2018-06-24T05:50:00.524Z,65.90
2018-06-24T05:54:55.073Z,64.50
2018-06-24T05:59:49.696Z,65.90
2018-06-24T06:04:49.728Z,67.80
2018-06-24T06:09:44.297Z,67.30
2018-06-24T06:14:38.864Z,68.20
2018-06-24T06:19:33.721Z,69.70
2018-06-24T06:24:28.547Z,70.00
2018-06-24T06:29:23.061Z,69.20
2018-06-24T06:34:17.497Z,70.00
2018-06-24T06:39:12.018Z,71.00
2018-06-24T06:49:00.993Z,70.80
2018-06-24T06:53:55.597Z,69.10
2018-06-24T06:58:50.176Z,68.20
2018-06-24T07:03:45.201Z,68.10
2018-06-24T07:08:39.745Z,64.60
2018-06-24T07:13:34.211Z,63.90
2018-06-24T07:18:28.798Z,63.20
2018-06-24T07:23:23.417Z,61.90
2018-06-24T07:28:18.056Z,60.80
2018-06-24T07:33:12.571Z,62.40
2018-06-24T07:38:07.271Z,62.50
2018-06-24T07:43:01.891Z,64.30
2018-06-24T07:47:56.554Z,65.30
2018-06-24T07:52:51.126Z,66.00
2018-06-24T07:57:45.851Z,65.00
2018-06-24T08:02:40.476Z,65.00
2018-06-24T08:07:36.634Z,64.10
2018-06-24T08:12:31.184Z,62.70
2018-06-24T08:17:25.714Z,63.20
2018-06-24T08:27:14.465Z,62.40
2018-06-24T08:32:09.073Z,64.80
2018-06-24T08:37:03.893Z,63.20
2018-06-24T08:41:58.424Z,62.10
2018-06-24T08:46:53.010Z,60.80
2018-06-24T08:51:47.578Z,59.40
2018-06-24T08:56:42.409Z,59.00
2018-06-24T09:01:37.022Z,59.80
2018-06-24T09:06:31.539Z,61.60
2018-06-24T09:11:26.274Z,60.80
2018-06-24T09:16:20.973Z,60.60
2018-06-24T09:21:16.214Z,59.90
2018-06-24T09:26:10.900Z,59.10
2018-06-24T09:31:05.610Z,61.50
2018-06-24T09:36:00.203Z,61.70
2018-06-24T09:40:55.179Z,62.10
2018-06-24T09:45:49.821Z,61.40
2018-06-24T09:50:44.341Z,59.10
2018-06-24T09:55:39.162Z,58.40
2018-06-24T10:00:33.701Z,59.60
2018-06-24T10:05:28.180Z,57.60
2018-06-24T10:10:22.763Z,55.90
2018-06-24T10:15:17.328Z,55.00
2018-06-24T10:20:12.669Z,53.60
2018-06-24T10:25:07.254Z,55.20
2018-06-24T10:30:01.930Z,55.40
2018-06-24T10:34:56.504Z,54.80
2018-06-24T10:39:51.025Z,55.10
2018-06-24T10:44:45.524Z,54.80
2018-06-24T10:49:40.253Z,56.10
2018-06-24T10:54:34.975Z,53.70
2018-06-24T10:59:29.550Z,55.30
2018-06-24T11:04:24.083Z,53.60
2018-06-24T11:09:18.636Z,54.30
2018-06-24T11:14:13.223Z,56.30
2018-06-24T11:19:07.920Z,57.60
2018-06-24T11:24:02.429Z,57.80
2018-06-24T11:28:56.986Z,58.70
2018-06-24T11:33:51.527Z,58.80
2018-06-24T11:38:45.995Z,57.50
2018-06-24T11:48:34.830Z,54.70
2018-06-24T11:53:29.359Z,55.60
2018-06-24T11:58:23.877Z,56.20
2018-06-24T12:03:18.383Z,55.20
2018-06-24T12:08:12.927Z,55.20
2018-06-24T12:13:07.468Z,54.20
2018-06-24T12:18:02.081Z,54.50
2018-06-24T12:22:56.672Z,54.30
2018-06-24T12:27:51.181Z,53.70
2018-06-24T12:32:45.689Z,51.10
2018-06-24T12:37:40.190Z,51.70
2018-06-24T12:42:34.809Z,53.00
2018-06-24T12:47:29.421Z,51.70
2018-06-24T12:52:24.049Z,52.10
2018-06-24T12:57:18.997Z,51.70
2018-06-24T13:02:13.535Z,50.70
2018-06-24T13:07:08.171Z,51.20
2018-06-24T13:12:02.707Z,48.90
2018-06-24T13:16:57.258Z,49.80
2018-06-24T13:21:51.920Z,48.90
2018-06-24T13:26:46.552Z,47.60
2018-06-24T13:31:41.208Z,47.40
2018-06-24T13:36:35.802Z,46.50
2018-06-24T13:41:30.356Z,46.80
2018-06-24T13:46:25.757Z,47.80
2018-06-24T13:51:20.455Z,46.70
2018-06-24T13:56:15.081Z,47.20
2018-06-24T14:01:09.605Z,46.60
2018-06-24T14:06:04.642Z,45.50
2018-06-24T14:10:59.176Z,44.30
2018-06-24T14:15:53.832Z,44.70
2018-06-24T14:20:48.413Z,46.90
2018-06-24T14:25:43.048Z,48.00
2018-06-24T14:30:37.624Z,47.70
2018-06-24T14:35:32.320Z,48.70
2018-06-24T14:40:26.964Z,48.00
2018-06-24T14:45:21.556Z,48.10
2018-06-24T14:50:16.121Z,48.70
2018-06-24T14:55:10.650Z,49.60
2018-06-24T15:00:05.984Z,49.80
2018-06-24T15:05:00.551Z,49.00
2018-06-24T15:09:55.104Z,49.60
2018-06-24T15:14:49.714Z,50.70
2018-06-24T15:19:44.212Z,50.90
2018-06-24T15:24:40.165Z,50.60
2018-06-24T15:29:34.697Z,50.90
2018-06-24T15:34:29.551Z,51.00
2018-06-24T15:39:23.986Z,50.80
2018-06-24T15:44:18.504Z,50.60
2018-06-24T15:49:13.289Z,51.10
2018-06-24T15:54:07.858Z,51.90
2018-06-24T15:59:02.445Z,52.80
2018-06-24T16:03:57.121Z,53.80
2018-06-24T16:08:51.672Z,53.60
2018-06-24T16:13:46.266Z,54.70
2018-06-24T16:18:41.384Z,55.70
2018-06-24T16:23:36.272Z,54.70
2018-06-24T16:28:31.918Z,55.90
2018-06-24T16:33:26.466Z,55.50
2018-06-24T16:38:21.147Z,55.90
2018-06-24T16:43:15.790Z,58.30
2018-06-24T16:48:10.318Z,57.10
2018-06-24T16:53:05.053Z,57.10
2018-06-24T16:57:59.651Z,58.50
2018-06-24T17:02:54.140Z,58.90
2018-06-24T17:07:48.784Z,59.60
2018-06-24T17:12:43.409Z,60.00
2018-06-24T17:17:37.951Z,60.70
2018-06-24T17:22:32.482Z,61.10
2018-06-24T17:27:28.555Z,61.90
2018-06-24T17:32:23.131Z,62.00
2018-06-24T17:37:17.954Z,62.50
2018-06-24T17:42:12.565Z,62.70
2018-06-24T17:47:07.285Z,62.80
2018-06-24T17:52:02.533Z,62.80
2018-06-24T17:56:57.273Z,62.80
2018-06-24T18:06:46.613Z,62.30
2018-06-24T18:11:41.727Z,62.20
2018-06-24T18:16:36.667Z,63.60
2018-06-24T18:21:31.321Z,64.20
2018-06-24T18:26:26.436Z,64.20
2018-06-24T18:31:21.037Z,64.50
2018-06-24T18:36:15.668Z,64.30
2018-06-24T18:46:04.597Z,65.00
2018-06-24T18:50:59.206Z,65.60
2018-06-24T18:55:53.724Z,66.00
2018-06-24T19:00:48.359Z,65.10
2018-06-24T19:05:42.904Z,66.00
2018-06-24T19:15:31.711Z,66.70
2018-06-24T19:20:27.135Z,67.30
2018-06-24T19:25:21.749Z,67.40
2018-06-24T19:30:16.185Z,67.40
2018-06-24T19:35:10.773Z,67.70
2018-06-24T19:40:06.855Z,66.50
2018-06-24T19:45:01.336Z,66.40
2018-06-24T19:49:55.918Z,66.10
2018-06-24T19:54:50.493Z,66.30
2018-06-24T19:59:45.475Z,66.40
2018-06-24T20:04:40.074Z,66.10
2018-06-24T20:09:34.516Z,66.60
2018-06-24T20:14:29.080Z,66.80
2018-06-24T20:19:23.593Z,66.70
2018-06-24T20:24:18.348Z,66.80
2018-06-24T20:29:12.993Z,66.90
2018-06-24T20:34:07.521Z,66.90
2018-06-24T20:39:02.036Z,66.70
2018-06-24T20:43:56.589Z,66.80
2018-06-24T20:48:51.076Z,67.40
2018-06-24T20:53:45.582Z,66.70
2018-06-24T20:58:40.128Z,66.10
2018-06-24T21:03:34.678Z,67.00
2018-06-24T21:08:29.300Z,67.50
2018-06-24T21:13:23.803Z,67.50
2018-06-24T21:18:18.320Z,67.80
2018-06-24T21:23:12.826Z,68.00
2018-06-24T21:28:07.329Z,67.70
2018-06-24T21:33:01.781Z,67.40
2018-06-24T21:37:56.328Z,67.20
2018-06-24T21:42:50.851Z,67.40
2018-06-24T21:47:45.347Z,67.80
2018-06-24T21:52:39.867Z,67.90
2018-06-24T21:57:34.425Z,68.00
2018-06-24T22:02:28.936Z,67.20
2018-06-24T22:07:24.418Z,67.30
2018-06-24T22:12:18.981Z,66.60
2018-06-24T22:17:13.596Z,67.20
2018-06-24T22:22:08.114Z,67.10
2018-06-24T22:27:02.688Z,67.80
2018-06-24T22:31:57.183Z,68.60
2018-06-24T22:36:51.740Z,68.90
2018-06-24T22:41:46.221Z,69.30
2018-06-24T22:46:40.869Z,70.60
2018-06-24T22:51:35.420Z,71.00
2018-06-24T22:56:29.877Z,71.80
2018-06-24T23:01:24.368Z,71.80
2018-06-24T23:06:18.792Z,71.20
2018-06-24T23:11:13.344Z,71.90
2018-06-24T23:16:08.020Z,72.60
2018-06-24T23:21:02.474Z,72.70
2018-06-24T23:25:56.961Z,72.80
2018-06-24T23:30:51.432Z,73.60
2018-06-24T23:35:45.902Z,73.70
2018-06-24T23:40:40.345Z,73.70
2018-06-24T23:45:34.811Z,74.40
2018-06-24T23:50:29.287Z,74.70
2018-06-24T23:55:23.741Z,75.70
